MUHG/HOG METAR and TAF weather

Enter ICAO airport designator
Station Type Date Time Source
MUHG METAR 2020/01/24 02:50 UTC NOAA

MUHG 240250Z 04004KT 8000 VCFG SKC 18/16 Q1015


Station Type Date Time Source
MUHG Decoded METAR 2020/01/24 02:50 UTC NOAA

Holguin Civ / Mil , Cuba (MUHG) 20-47N 076-19W
Jan 23, 2020 - 09:50 PM EST / 2020.01.24 0250 UTC
Wind: from the NE (040 degrees) at 5 MPH (4 KT):0
Visibility: 4 mile(s):0
Sky conditions: clear
Weather: fog in the vicinity
Temperature: 64 F (18 C)
Dew Point: 60 F (16 C)
Relative Humidity: 88%
Pressure (altimeter): 29.97 in. Hg (1015 hPa)
ob: MUHG 240250Z 04004KT 8000 VCFG SKC 18/16 Q1015
cycle: 3

Station Type Date Time Source
MUHG TAF 2020/01/23 18:03 UTC NOAA

TAF MUHG 231700Z 2318/2418 01010KT 9000 SCT020
BECMG 2401/2403 VRB03KT

Example: see airport list